Impacts METAR Board INFO
IDs:

KEWR - Newark Intl, NJ, US

Updated at: 1842 UTC 13 Dec 2017
Potential Impact None Slight Moderate High
Time13/06Z 13/07Z 13/08Z 13/09Z 13/10Z 13/11Z 13/12Z 13/13Z 13/14Z 13/15Z 13/16Z 13/17Z 13/18Z
VIS10 10 10 10 10 10 10 10 10 10 10 10 10
CIG60 -- -- -- -- -- -- -- -- 50 50 250 --
CoverBKNFEWFEWFEWFEWFEWFEWFEWSCTBKNBKNBKNSCT
FltCatVFRVFRVFRVFRVFRVFRVFRVFRVFRVFRVFRVFRVFR
WX--------------------------
WDir320290280280270270270270270280290280280
WSpd18 16 21 17 20 15 19 16 21 20 20 28 17
WGst24 24 27 27 -- 21 26 25 28 28 41 36 28
Raw hourly METARs
KEWR 130551Z 32018G24KT 10SM BKN060 M03/M15 A2951 RMK AO2 PK WND 32027/0500 SLP992 T10281150 10056 21028 52023 $
KEWR 130651Z 29016G24KT 10SM FEW055 M04/M17 A2953 RMK AO2 PK WND 28030/0621 SLP000 T10441172 $
KEWR 130751Z 28021G27KT 10SM FEW050 M05/M17 A2955 RMK AO2 PK WND 27027/0659 SLP006 T10501167 $
KEWR 130851Z 28017G27KT 10SM FEW050 M06/M17 A2953 RMK AO2 PK WND 28027/0759 SLP000 T10611167 50007 $
KEWR 130951Z 27020KT 10SM FEW050 M06/M16 A2953 RMK AO2 PK WND 28027/0904 SLP998 T10611156 $
KEWR 131051Z 27015G21KT 10SM FEW050 M07/M15 A2953 RMK AO2 PK WND 27030/1025 SLP998 T10671150 $
KEWR 131151Z 27019G26KT 10SM FEW040 M07/M15 A2955 RMK AO2 PK WND 28030/1113 SLP005 T10671150 11028 21067 53005 $
KEWR 131251Z 27016G25KT 10SM FEW040 M06/M15 A2956 RMK AO2 PK WND 28029/1201 SLP009 T10611150 $
KEWR 131351Z 27021G28KT 10SM SCT041 SCT250 M05/M14 A2957 RMK AO2 PK WND 27029/1335 SLP014 T10501144 $
KEWR 131451Z 28020G28KT 10SM BKN050 BKN060 M03/M14 A2957 RMK AO2 PK WND 30036/1437 SLP014 T10331144 51009 $
KEWR 131551Z 29020G41KT 10SM FEW045 BKN050 M03/M15 A2957 RMK AO2 PK WND 28041/1548 SLP013 VIRGA T10281150
KEWR 131651Z 28028G36KT 10SM FEW045 SCT050 BKN250 M01/M15 A2956 RMK AO2 PK WND 29036/1616 SLP008 T10061150
KEWR 131751Z 28017G28KT 10SM FEW045 SCT055 SCT085 00/M16 A2956 RMK AO2 PK WND 28037/1659 SLP008 T00001161 10000 21067 57006